sensor_id;sensor_type;location;lat;lon;timestamp;temperature;humidity
42095;DHT22;27753;55.724;37.612;2023-10-08T00:01:42;6.40;99.90
42095;DHT22;27753;55.724;37.612;2023-10-08T00:04:10;6.30;99.90
42095;DHT22;27753;55.724;37.612;2023-10-08T00:06:44;6.40;99.90
42095;DHT22;27753;55.724;37.612;2023-10-08T00:09:11;6.40;99.90
42095;DHT22;27753;55.724;37.612;2023-10-08T00:11:38;6.40;99.90
42095;DHT22;27753;55.724;37.612;2023-10-08T00:14:04;6.50;99.90
42095;DHT22;27753;55.724;37.612;2023-10-08T00:16:39;6.50;99.90
42095;DHT22;27753;55.724;37.612;2023-10-08T00:19:09;6.50;99.90
42095;DHT22;27753;55.724;37.612;2023-10-08T00:21:38;6.40;99.90
42095;DHT22;27753;55.724;37.612;2023-10-08T00:24:05;6.40;99.90
42095;DHT22;27753;55.724;37.612;2023-10-08T00:26:33;6.40;99.90
42095;DHT22;27753;55.724;37.612;2023-10-08T00:29:05;6.40;99.90
42095;DHT22;27753;55.724;37.612;2023-10-08T00:31:50;6.50;99.90
42095;DHT22;27753;55.724;37.612;2023-10-08T00:34:16;6.50;99.90
42095;DHT22;27753;55.724;37.612;2023-10-08T00:36:46;6.60;99.70
42095;DHT22;27753;55.724;37.612;2023-10-08T00:39:16;6.60;99.70
42095;DHT22;27753;55.724;37.612;2023-10-08T00:41:53;6.60;99.50
42095;DHT22;27753;55.724;37.612;2023-10-08T00:44:24;6.60;99.00
42095;DHT22;27753;55.724;37.612;2023-10-08T00:46:55;6.50;98.90
42095;DHT22;27753;55.724;37.612;2023-10-08T00:49:26;6.50;98.80
42095;DHT22;27753;55.724;37.612;2023-10-08T00:52:14;6.40;98.40
42095;DHT22;27753;55.724;37.612;2023-10-08T00:54:42;6.30;98.40
42095;DHT22;27753;55.724;37.612;2023-10-08T00:57:19;6.30;98.50
42095;DHT22;27753;55.724;37.612;2023-10-08T00:59:50;6.20;98.40
42095;DHT22;27753;55.724;37.612;2023-10-08T01:02:20;6.20;98.30
42095;DHT22;27753;55.724;37.612;2023-10-08T01:04:52;6.20;98.20
42095;DHT22;27753;55.724;37.612;2023-10-08T01:07:20;6.20;98.00
42095;DHT22;27753;55.724;37.612;2023-10-08T01:09:46;6.20;97.80
42095;DHT22;27753;55.724;37.612;2023-10-08T01:12:21;6.20;97.80
42095;DHT22;27753;55.724;37.612;2023-10-08T01:14:47;6.20;97.70
42095;DHT22;27753;55.724;37.612;2023-10-08T01:17:15;6.20;97.70
42095;DHT22;27753;55.724;37.612;2023-10-08T01:19:42;6.20;97.60
42095;DHT22;27753;55.724;37.612;2023-10-08T01:22:12;6.30;97.50
42095;DHT22;27753;55.724;37.612;2023-10-08T01:24:53;6.30;97.40
42095;DHT22;27753;55.724;37.612;2023-10-08T01:27:19;6.30;96.90
42095;DHT22;27753;55.724;37.612;2023-10-08T01:29:51;6.30;97.00
42095;DHT22;27753;55.724;37.612;2023-10-08T01:32:18;6.20;96.40
42095;DHT22;27753;55.724;37.612;2023-10-08T01:34:45;6.20;96.40
42095;DHT22;27753;55.724;37.612;2023-10-08T01:37:13;6.20;96.40
42095;DHT22;27753;55.724;37.612;2023-10-08T01:39:39;6.20;96.20
42095;DHT22;27753;55.724;37.612;2023-10-08T01:42:08;6.20;96.40
42095;DHT22;27753;55.724;37.612;2023-10-08T01:44:42;6.10;96.30
42095;DHT22;27753;55.724;37.612;2023-10-08T01:47:12;6.10;96.20
42095;DHT22;27753;55.724;37.612;2023-10-08T01:49:38;6.10;96.40
42095;DHT22;27753;55.724;37.612;2023-10-08T01:52:06;6.10;96.50
42095;DHT22;27753;55.724;37.612;2023-10-08T01:54:33;6.10;96.30
42095;DHT22;27753;55.724;37.612;2023-10-08T01:57:01;6.10;96.40
42095;DHT22;27753;55.724;37.612;2023-10-08T01:59:31;6.10;96.50
42095;DHT22;27753;55.724;37.612;2023-10-08T02:01:57;6.10;96.90
42095;DHT22;27753;55.724;37.612;2023-10-08T02:04:23;5.90;97.20
42095;DHT22;27753;55.724;37.612;2023-10-08T02:06:49;5.90;97.60
42095;DHT22;27753;55.724;37.612;2023-10-08T02:09:14;5.80;97.70
42095;DHT22;27753;55.724;37.612;2023-10-08T02:11:45;5.80;97.50
42095;DHT22;27753;55.724;37.612;2023-10-08T02:14:11;5.90;97.50
42095;DHT22;27753;55.724;37.612;2023-10-08T02:16:39;5.90;97.40
42095;DHT22;27753;55.724;37.612;2023-10-08T02:19:04;5.90;97.10
42095;DHT22;27753;55.724;37.612;2023-10-08T02:21:32;5.90;96.90
42095;DHT22;27753;55.724;37.612;2023-10-08T02:23:58;6.00;96.90
42095;DHT22;27753;55.724;37.612;2023-10-08T02:26:24;6.00;96.30
42095;DHT22;27753;55.724;37.612;2023-10-08T02:28:50;6.00;96.40
42095;DHT22;27753;55.724;37.612;2023-10-08T02:31:16;6.00;96.30
42095;DHT22;27753;55.724;37.612;2023-10-08T02:33:43;6.00;96.40
42095;DHT22;27753;55.724;37.612;2023-10-08T02:36:09;6.00;96.50
42095;DHT22;27753;55.724;37.612;2023-10-08T02:38:35;5.90;96.70
42095;DHT22;27753;55.724;37.612;2023-10-08T02:41:03;5.80;96.90
42095;DHT22;27753;55.724;37.612;2023-10-08T02:43:32;5.60;97.20
42095;DHT22;27753;55.724;37.612;2023-10-08T02:46:00;5.50;97.60
42095;DHT22;27753;55.724;37.612;2023-10-08T02:48:26;5.30;98.00
42095;DHT22;27753;55.724;37.612;2023-10-08T02:50:52;5.20;98.20
42095;DHT22;27753;55.724;37.612;2023-10-08T02:53:20;5.10;98.50
42095;DHT22;27753;55.724;37.612;2023-10-08T02:55:51;5.10;98.70
42095;DHT22;27753;55.724;37.612;2023-10-08T02:58:17;5.10;98.70
42095;DHT22;27753;55.724;37.612;2023-10-08T03:00:48;5.00;98.90
42095;DHT22;27753;55.724;37.612;2023-10-08T03:03:15;5.00;99.10
42095;DHT22;27753;55.724;37.612;2023-10-08T03:05:43;5.00;99.10
42095;DHT22;27753;55.724;37.612;2023-10-08T03:08:09;5.00;99.10
42095;DHT22;27753;55.724;37.612;2023-10-08T03:10:40;4.90;99.30
42095;DHT22;27753;55.724;37.612;2023-10-08T03:13:10;5.00;99.60
42095;DHT22;27753;55.724;37.612;2023-10-08T03:15:40;5.00;99.70
42095;DHT22;27753;55.724;37.612;2023-10-08T03:18:12;5.00;99.80
42095;DHT22;27753;55.724;37.612;2023-10-08T03:20:40;4.90;99.90
42095;DHT22;27753;55.724;37.612;2023-10-08T03:23:13;4.90;99.90
42095;DHT22;27753;55.724;37.612;2023-10-08T03:25:52;4.80;99.90
42095;DHT22;27753;55.724;37.612;2023-10-08T03:28:26;4.70;99.90
42095;DHT22;27753;55.724;37.612;2023-10-08T03:30:56;4.60;99.90
42095;DHT22;27753;55.724;37.612;2023-10-08T03:33:35;4.60;99.90
42095;DHT22;27753;55.724;37.612;2023-10-08T03:36:03;4.50;99.90
42095;DHT22;27753;55.724;37.612;2023-10-08T03:38:49;4.50;99.90
42095;DHT22;27753;55.724;37.612;2023-10-08T03:41:22;4.50;99.90
42095;DHT22;27753;55.724;37.612;2023-10-08T03:43:53;4.50;99.90
42095;DHT22;27753;55.724;37.612;2023-10-08T03:46:21;4.50;99.90
42095;DHT22;27753;55.724;37.612;2023-10-08T03:48:50;4.50;99.90
42095;DHT22;27753;55.724;37.612;2023-10-08T03:51:22;4.60;99.90
42095;DHT22;27753;55.724;37.612;2023-10-08T03:53:48;4.60;99.90
42095;DHT22;27753;55.724;37.612;2023-10-08T03:56:27;4.60;99.90
42095;DHT22;27753;55.724;37.612;2023-10-08T03:58:57;4.70;99.90
42095;DHT22;27753;55.724;37.612;2023-10-08T04:01:26;4.70;99.90
42095;DHT22;27753;55.724;37.612;2023-10-08T04:03:56;4.70;99.90
42095;DHT22;27753;55.724;37.612;2023-10-08T04:06:28;4.70;99.90
42095;DHT22;27753;55.724;37.612;2023-10-08T04:08:56;4.70;99.90
42095;DHT22;27753;55.724;37.612;2023-10-08T04:11:35;4.70;99.90
42095;DHT22;27753;55.724;37.612;2023-10-08T04:14:13;4.80;99.90
42095;DHT22;27753;55.724;37.612;2023-10-08T04:16:42;4.80;99.90
42095;DHT22;27753;55.724;37.612;2023-10-08T04:19:08;4.90;99.90
42095;DHT22;27753;55.724;37.612;2023-10-08T04:21:34;4.80;99.90
42095;DHT22;27753;55.724;37.612;2023-10-08T04:24:01;4.90;99.90
42095;DHT22;27753;55.724;37.612;2023-10-08T04:26:29;4.90;99.90
42095;DHT22;27753;55.724;37.612;2023-10-08T04:28:58;5.00;99.90
42095;DHT22;27753;55.724;37.612;2023-10-08T04:31:27;5.00;99.90
42095;DHT22;27753;55.724;37.612;2023-10-08T04:33:54;5.10;99.90
42095;DHT22;27753;55.724;37.612;2023-10-08T04:36:26;5.10;99.90
42095;DHT22;27753;55.724;37.612;2023-10-08T04:38:52;5.20;99.80
42095;DHT22;27753;55.724;37.612;2023-10-08T04:41:20;5.20;99.70
42095;DHT22;27753;55.724;37.612;2023-10-08T04:43:53;5.30;99.70
42095;DHT22;27753;55.724;37.612;2023-10-08T04:46:21;5.20;99.50
42095;DHT22;27753;55.724;37.612;2023-10-08T04:49:12;5.20;99.60
42095;DHT22;27753;55.724;37.612;2023-10-08T04:52:01;5.20;99.30
42095;DHT22;27753;55.724;37.612;2023-10-08T04:54:31;5.30;99.40
42095;DHT22;27753;55.724;37.612;2023-10-08T04:57:00;5.30;99.20
42095;DHT22;27753;55.724;37.612;2023-10-08T04:59:28;5.30;99.00
42095;DHT22;27753;55.724;37.612;2023-10-08T05:02:04;5.30;98.80
42095;DHT22;27753;55.724;37.612;2023-10-08T05:04:40;5.30;98.50
42095;DHT22;27753;55.724;37.612;2023-10-08T05:07:18;5.30;98.30
42095;DHT22;27753;55.724;37.612;2023-10-08T05:10:06;5.30;98.40
42095;DHT22;27753;55.724;37.612;2023-10-08T05:12:33;5.30;98.50
42095;DHT22;27753;55.724;37.612;2023-10-08T05:15:16;5.20;98.60
42095;DHT22;27753;55.724;37.612;2023-10-08T05:17:46;5.20;98.80
42095;DHT22;27753;55.724;37.612;2023-10-08T05:20:21;5.20;98.90
42095;DHT22;27753;55.724;37.612;2023-10-08T05:23:13;5.10;98.70
42095;DHT22;27753;55.724;37.612;2023-10-08T05:25:56;5.10;98.80
42095;DHT22;27753;55.724;37.612;2023-10-08T05:28:34;5.10;98.80
42095;DHT22;27753;55.724;37.612;2023-10-08T05:31:16;5.10;98.90
42095;DHT22;27753;55.724;37.612;2023-10-08T05:33:44;5.10;99.10
42095;DHT22;27753;55.724;37.612;2023-10-08T05:36:28;5.00;99.00
42095;DHT22;27753;55.724;37.612;2023-10-08T05:39:02;5.00;99.30
42095;DHT22;27753;55.724;37.612;2023-10-08T05:41:45;5.10;99.20
42095;DHT22;27753;55.724;37.612;2023-10-08T05:44:18;5.10;99.10
42095;DHT22;27753;55.724;37.612;2023-10-08T05:46:44;5.10;98.70
42095;DHT22;27753;55.724;37.612;2023-10-08T05:49:19;5.10;98.50
42095;DHT22;27753;55.724;37.612;2023-10-08T05:51:57;5.10;98.30
42095;DHT22;27753;55.724;37.612;2023-10-08T05:54:29;5.10;98.20
42095;DHT22;27753;55.724;37.612;2023-10-08T05:57:03;5.20;98.00
42095;DHT22;27753;55.724;37.612;2023-10-08T05:59:32;5.30;97.60
42095;DHT22;27753;55.724;37.612;2023-10-08T06:02:07;5.30;97.50
42095;DHT22;27753;55.724;37.612;2023-10-08T06:04:54;5.40;97.20
42095;DHT22;27753;55.724;37.612;2023-10-08T06:07:38;5.40;96.60
42095;DHT22;27753;55.724;37.612;2023-10-08T06:10:14;5.40;96.40
42095;DHT22;27753;55.724;37.612;2023-10-08T06:13:13;5.40;96.70
42095;DHT22;27753;55.724;37.612;2023-10-08T06:15:52;5.40;96.60
42095;DHT22;27753;55.724;37.612;2023-10-08T06:18:22;5.40;96.60
42095;DHT22;27753;55.724;37.612;2023-10-08T06:20:56;5.20;96.60
42095;DHT22;27753;55.724;37.612;2023-10-08T06:23:24;5.20;97.20
42095;DHT22;27753;55.724;37.612;2023-10-08T06:25:52;5.10;97.20
42095;DHT22;27753;55.724;37.612;2023-10-08T06:28:37;5.10;97.30
42095;DHT22;27753;55.724;37.612;2023-10-08T06:31:04;5.10;97.50
42095;DHT22;27753;55.724;37.612;2023-10-08T06:33:41;5.10;97.50
42095;DHT22;27753;55.724;37.612;2023-10-08T06:36:07;5.10;97.30
42095;DHT22;27753;55.724;37.612;2023-10-08T06:38:45;5.30;97.40
42095;DHT22;27753;55.724;37.612;2023-10-08T06:41:15;5.50;96.60
42095;DHT22;27753;55.724;37.612;2023-10-08T06:43:48;5.50;96.30
42095;DHT22;27753;55.724;37.612;2023-10-08T06:46:18;5.60;95.80
42095;DHT22;27753;55.724;37.612;2023-10-08T06:48:48;5.70;95.90
42095;DHT22;27753;55.724;37.612;2023-10-08T06:51:15;5.80;95.20
42095;DHT22;27753;55.724;37.612;2023-10-08T06:53:47;5.80;95.00
42095;DHT22;27753;55.724;37.612;2023-10-08T06:56:17;5.90;94.40
42095;DHT22;27753;55.724;37.612;2023-10-08T06:58:45;5.90;94.50
42095;DHT22;27753;55.724;37.612;2023-10-08T07:01:19;5.90;94.80
42095;DHT22;27753;55.724;37.612;2023-10-08T07:03:54;6.00;94.50
42095;DHT22;27753;55.724;37.612;2023-10-08T07:06:29;5.90;94.10
42095;DHT22;27753;55.724;37.612;2023-10-08T07:09:00;5.70;94.40
42095;DHT22;27753;55.724;37.612;2023-10-08T07:11:34;5.70;94.90
42095;DHT22;27753;55.724;37.612;2023-10-08T07:14:04;5.70;95.00
42095;DHT22;27753;55.724;37.612;2023-10-08T07:16:33;5.70;94.70
42095;DHT22;27753;55.724;37.612;2023-10-08T07:19:00;5.70;94.90
42095;DHT22;27753;55.724;37.612;2023-10-08T07:21:30;5.70;94.60
42095;DHT22;27753;55.724;37.612;2023-10-08T07:24:13;5.70;94.50
42095;DHT22;27753;55.724;37.612;2023-10-08T07:26:47;5.80;94.60
42095;DHT22;27753;55.724;37.612;2023-10-08T07:29:15;5.90;94.00
42095;DHT22;27753;55.724;37.612;2023-10-08T07:31:47;5.90;93.60
42095;DHT22;27753;55.724;37.612;2023-10-08T07:34:19;5.90;93.60
42095;DHT22;27753;55.724;37.612;2023-10-08T07:36:52;6.00;93.60
42095;DHT22;27753;55.724;37.612;2023-10-08T07:39:21;6.10;93.50
42095;DHT22;27753;55.724;37.612;2023-10-08T07:42:03;6.20;93.00
42095;DHT22;27753;55.724;37.612;2023-10-08T07:44:34;6.10;92.40
42095;DHT22;27753;55.724;37.612;2023-10-08T07:47:05;6.20;92.60
42095;DHT22;27753;55.724;37.612;2023-10-08T07:49:36;6.30;92.40
42095;DHT22;27753;55.724;37.612;2023-10-08T07:52:02;6.30;91.70
42095;DHT22;27753;55.724;37.612;2023-10-08T07:54:31;6.20;91.30
42095;DHT22;27753;55.724;37.612;2023-10-08T07:57:01;6.10;91.10
42095;DHT22;27753;55.724;37.612;2023-10-08T07:59:40;6.10;91.80
42095;DHT22;27753;55.724;37.612;2023-10-08T08:02:14;6.20;91.40
42095;DHT22;27753;55.724;37.612;2023-10-08T08:04:41;6.20;91.40
42095;DHT22;27753;55.724;37.612;2023-10-08T08:07:09;6.20;91.50
42095;DHT22;27753;55.724;37.612;2023-10-08T08:09:42;6.30;91.20
42095;DHT22;27753;55.724;37.612;2023-10-08T08:12:19;6.30;91.40
42095;DHT22;27753;55.724;37.612;2023-10-08T08:14:47;6.20;90.90
42095;DHT22;27753;55.724;37.612;2023-10-08T08:17:14;6.30;91.20
42095;DHT22;27753;55.724;37.612;2023-10-08T08:19:44;6.40;90.90
42095;DHT22;27753;55.724;37.612;2023-10-08T08:22:11;6.40;90.70
42095;DHT22;27753;55.724;37.612;2023-10-08T08:24:56;6.40;90.00
42095;DHT22;27753;55.724;37.612;2023-10-08T08:27:41;6.30;90.90
42095;DHT22;27753;55.724;37.612;2023-10-08T08:30:10;6.50;90.50
42095;DHT22;27753;55.724;37.612;2023-10-08T08:32:39;6.60;90.40
42095;DHT22;27753;55.724;37.612;2023-10-08T08:35:09;7.30;90.80
42095;DHT22;27753;55.724;37.612;2023-10-08T08:37:36;7.90;87.00
42095;DHT22;27753;55.724;37.612;2023-10-08T08:40:04;7.80;84.60
42095;DHT22;27753;55.724;37.612;2023-10-08T08:42:49;7.50;83.90
42095;DHT22;27753;55.724;37.612;2023-10-08T08:45:20;7.20;85.80
42095;DHT22;27753;55.724;37.612;2023-10-08T08:47:46;7.30;85.90
42095;DHT22;27753;55.724;37.612;2023-10-08T08:50:13;7.50;85.50
42095;DHT22;27753;55.724;37.612;2023-10-08T08:52:39;7.60;85.40
42095;DHT22;27753;55.724;37.612;2023-10-08T08:55:09;7.60;84.30
42095;DHT22;27753;55.724;37.612;2023-10-08T08:57:51;7.30;83.20
42095;DHT22;27753;55.724;37.612;2023-10-08T09:00:19;7.30;85.30
42095;DHT22;27753;55.724;37.612;2023-10-08T09:02:46;7.30;84.00
42095;DHT22;27753;55.724;37.612;2023-10-08T09:05:13;7.50;85.10
42095;DHT22;27753;55.724;37.612;2023-10-08T09:07:56;7.60;83.80
42095;DHT22;27753;55.724;37.612;2023-10-08T09:10:23;7.70;83.90
42095;DHT22;27753;55.724;37.612;2023-10-08T09:12:57;7.80;83.80
42095;DHT22;27753;55.724;37.612;2023-10-08T09:15:26;7.50;81.80
42095;DHT22;27753;55.724;37.612;2023-10-08T09:17:54;7.20;83.20
42095;DHT22;27753;55.724;37.612;2023-10-08T09:20:20;7.10;83.60
42095;DHT22;27753;55.724;37.612;2023-10-08T09:22:59;7.10;84.20
42095;DHT22;27753;55.724;37.612;2023-10-08T09:25:35;7.10;84.00
42095;DHT22;27753;55.724;37.612;2023-10-08T09:28:02;7.00;84.30
42095;DHT22;27753;55.724;37.612;2023-10-08T09:30:36;6.90;84.30
42095;DHT22;27753;55.724;37.612;2023-10-08T09:33:09;6.70;85.80
42095;DHT22;27753;55.724;37.612;2023-10-08T09:35:36;6.70;86.50
42095;DHT22;27753;55.724;37.612;2023-10-08T09:38:04;6.60;87.00
42095;DHT22;27753;55.724;37.612;2023-10-08T09:40:30;6.60;87.00
42095;DHT22;27753;55.724;37.612;2023-10-08T09:42:56;6.60;87.50
42095;DHT22;27753;55.724;37.612;2023-10-08T09:45:22;6.40;86.50
42095;DHT22;27753;55.724;37.612;2023-10-08T09:47:54;6.30;87.20
42095;DHT22;27753;55.724;37.612;2023-10-08T09:50:28;6.20;87.00
42095;DHT22;27753;55.724;37.612;2023-10-08T09:53:13;6.20;87.70
42095;DHT22;27753;55.724;37.612;2023-10-08T09:55:56;6.20;87.40
42095;DHT22;27753;55.724;37.612;2023-10-08T09:58:25;6.00;89.10
42095;DHT22;27753;55.724;37.612;2023-10-08T10:00:55;5.90;90.00
42095;DHT22;27753;55.724;37.612;2023-10-08T10:03:21;5.90;90.40
42095;DHT22;27753;55.724;37.612;2023-10-08T10:05:49;6.10;90.50
42095;DHT22;27753;55.724;37.612;2023-10-08T10:08:20;6.10;90.50
42095;DHT22;27753;55.724;37.612;2023-10-08T10:10:58;6.10;90.90
42095;DHT22;27753;55.724;37.612;2023-10-08T10:13:28;6.00;91.30
42095;DHT22;27753;55.724;37.612;2023-10-08T10:15:54;6.00;91.10
42095;DHT22;27753;55.724;37.612;2023-10-08T10:23:39;6.20;90.70
42095;DHT22;27753;55.724;37.612;2023-10-08T10:26:30;6.10;91.20
42095;DHT22;27753;55.724;37.612;2023-10-08T10:34:22;5.40;92.80
42095;DHT22;27753;55.724;37.612;2023-10-08T10:36:50;5.10;93.70
42095;DHT22;27753;55.724;37.612;2023-10-08T10:39:22;4.90;94.30
42095;DHT22;27753;55.724;37.612;2023-10-08T10:41:58;4.70;95.00
42095;DHT22;27753;55.724;37.612;2023-10-08T10:44:30;4.80;95.60
42095;DHT22;27753;55.724;37.612;2023-10-08T10:46:57;4.70;95.80
42095;DHT22;27753;55.724;37.612;2023-10-08T10:49:43;4.60;96.10
42095;DHT22;27753;55.724;37.612;2023-10-08T10:52:22;4.40;96.10
42095;DHT22;27753;55.724;37.612;2023-10-08T10:55:07;4.30;97.10
42095;DHT22;27753;55.724;37.612;2023-10-08T10:57:55;4.20;97.60
42095;DHT22;27753;55.724;37.612;2023-10-08T11:00:38;4.10;98.00
42095;DHT22;27753;55.724;37.612;2023-10-08T11:03:07;4.00;98.40
42095;DHT22;27753;55.724;37.612;2023-10-08T11:05:46;3.90;98.70
42095;DHT22;27753;55.724;37.612;2023-10-08T11:08:17;4.00;99.20
42095;DHT22;27753;55.724;37.612;2023-10-08T11:10:48;3.90;99.30
42095;DHT22;27753;55.724;37.612;2023-10-08T11:13:21;3.90;99.60
42095;DHT22;27753;55.724;37.612;2023-10-08T11:15:50;3.70;99.90
42095;DHT22;27753;55.724;37.612;2023-10-08T11:18:23;3.60;99.90
42095;DHT22;27753;55.724;37.612;2023-10-08T11:20:50;3.60;99.90
42095;DHT22;27753;55.724;37.612;2023-10-08T11:23:33;3.60;99.90
42095;DHT22;27753;55.724;37.612;2023-10-08T11:26:01;3.70;99.90
42095;DHT22;27753;55.724;37.612;2023-10-08T11:28:34;3.70;99.90
42095;DHT22;27753;55.724;37.612;2023-10-08T11:31:04;3.80;99.90
42095;DHT22;27753;55.724;37.612;2023-10-08T11:33:44;3.70;99.90
42095;DHT22;27753;55.724;37.612;2023-10-08T11:36:20;3.70;99.90
42095;DHT22;27753;55.724;37.612;2023-10-08T11:38:56;3.60;99.90
42095;DHT22;27753;55.724;37.612;2023-10-08T11:41:32;3.70;99.90
42095;DHT22;27753;55.724;37.612;2023-10-08T11:44:15;3.80;99.90
42095;DHT22;27753;55.724;37.612;2023-10-08T11:46:45;3.90;99.90
42095;DHT22;27753;55.724;37.612;2023-10-08T11:49:17;4.00;99.90
42095;DHT22;27753;55.724;37.612;2023-10-08T11:51:44;4.00;99.90
42095;DHT22;27753;55.724;37.612;2023-10-08T11:54:11;3.90;99.90
42095;DHT22;27753;55.724;37.612;2023-10-08T11:56:38;4.00;99.90
42095;DHT22;27753;55.724;37.612;2023-10-08T11:59:05;3.90;99.90
42095;DHT22;27753;55.724;37.612;2023-10-08T12:01:38;3.90;99.90
42095;DHT22;27753;55.724;37.612;2023-10-08T12:04:08;3.80;99.90
42095;DHT22;27753;55.724;37.612;2023-10-08T12:06:42;3.90;99.90
42095;DHT22;27753;55.724;37.612;2023-10-08T12:09:18;3.80;99.90
42095;DHT22;27753;55.724;37.612;2023-10-08T12:11:48;3.70;99.90
42095;DHT22;27753;55.724;37.612;2023-10-08T12:14:14;3.70;99.90
42095;DHT22;27753;55.724;37.612;2023-10-08T12:16:41;3.70;99.90
42095;DHT22;27753;55.724;37.612;2023-10-08T12:19:07;3.70;99.90
42095;DHT22;27753;55.724;37.612;2023-10-08T12:21:45;3.80;99.90
42095;DHT22;27753;55.724;37.612;2023-10-08T12:24:13;3.80;99.90
42095;DHT22;27753;55.724;37.612;2023-10-08T12:26:39;3.70;99.90
42095;DHT22;27753;55.724;37.612;2023-10-08T12:29:14;3.80;99.90
42095;DHT22;27753;55.724;37.612;2023-10-08T12:31:42;3.70;99.90
42095;DHT22;27753;55.724;37.612;2023-10-08T12:34:13;3.70;99.90
42095;DHT22;27753;55.724;37.612;2023-10-08T12:36:39;3.70;99.90
42095;DHT22;27753;55.724;37.612;2023-10-08T12:39:05;3.70;99.90
42095;DHT22;27753;55.724;37.612;2023-10-08T12:41:44;3.70;99.90
42095;DHT22;27753;55.724;37.612;2023-10-08T12:44:13;3.80;99.90
42095;DHT22;27753;55.724;37.612;2023-10-08T12:46:41;3.80;99.90
42095;DHT22;27753;55.724;37.612;2023-10-08T12:49:09;3.70;99.90
42095;DHT22;27753;55.724;37.612;2023-10-08T12:51:35;3.70;99.90
42095;DHT22;27753;55.724;37.612;2023-10-08T12:54:06;3.90;99.90
42095;DHT22;27753;55.724;37.612;2023-10-08T12:56:34;4.00;99.90
42095;DHT22;27753;55.724;37.612;2023-10-08T12:59:10;3.80;99.90
42095;DHT22;27753;55.724;37.612;2023-10-08T13:01:46;3.70;99.90
42095;DHT22;27753;55.724;37.612;2023-10-08T13:04:17;3.60;99.90
42095;DHT22;27753;55.724;37.612;2023-10-08T13:06:50;3.50;99.90
42095;DHT22;27753;55.724;37.612;2023-10-08T13:09:17;3.50;99.90
42095;DHT22;27753;55.724;37.612;2023-10-08T13:11:43;3.50;99.90
42095;DHT22;27753;55.724;37.612;2023-10-08T13:14:13;3.50;99.90
42095;DHT22;27753;55.724;37.612;2023-10-08T13:16:39;3.50;99.90
42095;DHT22;27753;55.724;37.612;2023-10-08T13:19:05;3.40;99.90
42095;DHT22;27753;55.724;37.612;2023-10-08T13:21:33;3.30;99.90
42095;DHT22;27753;55.724;37.612;2023-10-08T13:23:59;3.30;99.90
42095;DHT22;27753;55.724;37.612;2023-10-08T13:26:28;3.10;99.90
42095;DHT22;27753;55.724;37.612;2023-10-08T13:29:00;3.10;99.90
42095;DHT22;27753;55.724;37.612;2023-10-08T13:31:28;3.10;99.90
42095;DHT22;27753;55.724;37.612;2023-10-08T13:33:55;3.10;99.90
42095;DHT22;27753;55.724;37.612;2023-10-08T13:36:28;3.10;99.90
42095;DHT22;27753;55.724;37.612;2023-10-08T13:38:54;3.10;99.90
42095;DHT22;27753;55.724;37.612;2023-10-08T13:41:20;3.00;99.90
42095;DHT22;27753;55.724;37.612;2023-10-08T13:43:48;3.00;99.90
42095;DHT22;27753;55.724;37.612;2023-10-08T13:46:15;2.90;99.90
42095;DHT22;27753;55.724;37.612;2023-10-08T13:48:47;2.90;99.90
42095;DHT22;27753;55.724;37.612;2023-10-08T13:51:19;2.90;99.90
42095;DHT22;27753;55.724;37.612;2023-10-08T13:53:53;2.90;99.90
42095;DHT22;27753;55.724;37.612;2023-10-08T13:56:21;2.90;99.90
42095;DHT22;27753;55.724;37.612;2023-10-08T13:58:52;2.90;99.90
42095;DHT22;27753;55.724;37.612;2023-10-08T14:01:23;2.90;99.90
42095;DHT22;27753;55.724;37.612;2023-10-08T14:03:51;3.00;99.90
42095;DHT22;27753;55.724;37.612;2023-10-08T14:06:19;2.90;99.90
42095;DHT22;27753;55.724;37.612;2023-10-08T14:08:46;2.90;99.90
42095;DHT22;27753;55.724;37.612;2023-10-08T14:11:23;2.80;99.90
42095;DHT22;27753;55.724;37.612;2023-10-08T14:13:56;2.80;99.90
42095;DHT22;27753;55.724;37.612;2023-10-08T14:16:24;2.80;99.90
42095;DHT22;27753;55.724;37.612;2023-10-08T14:18:55;2.70;99.90
42095;DHT22;27753;55.724;37.612;2023-10-08T14:21:21;2.70;99.90
42095;DHT22;27753;55.724;37.612;2023-10-08T14:23:50;2.70;99.90
42095;DHT22;27753;55.724;37.612;2023-10-08T14:26:22;2.60;99.90
42095;DHT22;27753;55.724;37.612;2023-10-08T14:28:49;2.70;99.90
42095;DHT22;27753;55.724;37.612;2023-10-08T14:31:24;2.70;99.90
42095;DHT22;27753;55.724;37.612;2023-10-08T14:33:52;2.60;99.90
42095;DHT22;27753;55.724;37.612;2023-10-08T14:36:36;2.70;99.90
42095;DHT22;27753;55.724;37.612;2023-10-08T14:39:21;2.70;99.90
42095;DHT22;27753;55.724;37.612;2023-10-08T14:42:05;2.70;99.90
42095;DHT22;27753;55.724;37.612;2023-10-08T14:44:49;2.70;99.90
42095;DHT22;27753;55.724;37.612;2023-10-08T14:47:16;2.60;99.90
42095;DHT22;27753;55.724;37.612;2023-10-08T14:49:43;2.60;99.90
42095;DHT22;27753;55.724;37.612;2023-10-08T14:52:11;2.60;99.90
42095;DHT22;27753;55.724;37.612;2023-10-08T14:54:37;2.60;99.90
42095;DHT22;27753;55.724;37.612;2023-10-08T14:57:04;2.60;99.90
42095;DHT22;27753;55.724;37.612;2023-10-08T14:59:32;2.60;99.90
42095;DHT22;27753;55.724;37.612;2023-10-08T15:01:59;2.60;99.90
42095;DHT22;27753;55.724;37.612;2023-10-08T15:04:25;2.50;99.90
42095;DHT22;27753;55.724;37.612;2023-10-08T15:07:03;2.50;99.90
42095;DHT22;27753;55.724;37.612;2023-10-08T15:09:29;2.50;99.90
42095;DHT22;27753;55.724;37.612;2023-10-08T15:11:55;2.40;99.90
42095;DHT22;27753;55.724;37.612;2023-10-08T15:14:23;2.50;99.90
42095;DHT22;27753;55.724;37.612;2023-10-08T15:16:50;2.50;99.90
42095;DHT22;27753;55.724;37.612;2023-10-08T15:19:19;2.50;99.90
42095;DHT22;27753;55.724;37.612;2023-10-08T15:21:46;2.50;99.90
42095;DHT22;27753;55.724;37.612;2023-10-08T15:24:22;2.50;99.90
42095;DHT22;27753;55.724;37.612;2023-10-08T15:26:49;2.50;99.90
42095;DHT22;27753;55.724;37.612;2023-10-08T15:29:16;2.50;99.90
42095;DHT22;27753;55.724;37.612;2023-10-08T15:31:42;2.60;99.90
42095;DHT22;27753;55.724;37.612;2023-10-08T15:34:13;2.60;99.90
42095;DHT22;27753;55.724;37.612;2023-10-08T15:36:39;2.50;99.90
42095;DHT22;27753;55.724;37.612;2023-10-08T15:39:06;2.50;99.90
42095;DHT22;27753;55.724;37.612;2023-10-08T15:41:36;2.50;99.90
42095;DHT22;27753;55.724;37.612;2023-10-08T15:44:02;2.50;99.90
42095;DHT22;27753;55.724;37.612;2023-10-08T15:46:28;2.50;99.90
42095;DHT22;27753;55.724;37.612;2023-10-08T15:48:54;2.40;99.90
42095;DHT22;27753;55.724;37.612;2023-10-08T15:51:21;2.40;99.90
42095;DHT22;27753;55.724;37.612;2023-10-08T15:53:47;2.50;99.90
42095;DHT22;27753;55.724;37.612;2023-10-08T15:56:13;2.50;99.90
42095;DHT22;27753;55.724;37.612;2023-10-08T15:58:38;2.50;99.90
42095;DHT22;27753;55.724;37.612;2023-10-08T16:01:08;2.50;99.90
42095;DHT22;27753;55.724;37.612;2023-10-08T16:03:37;2.40;99.90
42095;DHT22;27753;55.724;37.612;2023-10-08T16:06:03;2.40;99.90